Latest Weather Observations for Dalby

IDQ60801

Issued at 4:02 pm EST Tuesday 23 October 2018 (issued every 10 minutes, with the page automatically refreshed every 10 minutes)

About weather observations | Map of weather stations | Latest weather observations for QLD | Other Formats
Station Details ID: 041522 Name: DALBY AIRPORT Lat: -27.16 Lon: 151.26 Height: 343.9 m
Data from the previous 72 hours. | See also: Recent months at Dalby
Date/Time
EST
Temp
°C
App
Temp
°C
Dew
Point
°C
Rel
Hum
%
Delta-T
°C
Wind Press
QNH
hPa
Press
MSL
hPa
Rain since
9am
mm
Dir  Spd
km/h
Gust
km/h
Spd
kts
Gust
kts
23/04:00pm 28.8 26.8 8.5 28 11.3 NNE 9 13 5 7 1013.5 1012.2 0.0
23/03:30pm 29.5 27.9 8.0 26 11.9 WNW 6 9 3 5 1013.7 1012.4 0.0
23/03:00pm 28.9 26.6 7.5 26 11.7 W 9 17 5 9 1013.8 1012.5 0.0
23/02:30pm 28.6 26.6 8.8 29 11.1 W 9 17 5 9 1014.1 1012.8 0.0
23/02:00pm 28.5 27.1 9.7 31 10.7 NE 7 11 4 6 1014.4 1013.1 0.0
23/01:30pm 27.8 28.1 14.4 43 8.2 ENE 6 11 3 6 1015.1 1013.7 0.0
23/01:00pm 27.6 27.5 13.9 43 8.3 NW 7 17 4 9 1015.4 1014.0 0.0
23/12:30pm 26.7 26.8 15.4 50 7.0 ENE 9 13 5 7 1015.8 1014.5 0.0
23/12:00pm 25.9 26.2 14.4 49 6.9 S 6 11 3 6 1016.5 1015.2 0.0
23/11:30am 25.5 26.3 17.4 61 5.1 NE 9 13 5 7 1016.9 1015.6 0.0
23/11:00am 24.7 25.5 15.9 58 5.4 WSW 6 15 3 8 1017.4 1016.1 0.0
23/10:30am 24.6 24.9 16.1 59 5.3 N 9 15 5 8 1017.9 1016.5 0.0
23/10:00am 23.8 24.5 15.6 60 5.0 NE 6 13 3 7 1018.1 1016.8 0.0
23/09:30am 23.1 23.4 14.4 58 5.2 NNW 6 11 3 6 1018.3 1017.0 0.0
23/09:00am 22.1 22.5 14.7 63 4.4 N 6 9 3 5 1018.2 1016.9 0.0
23/08:30am 21.5 22.8 15.1 67 3.8 NW 2 9 1 5 1018.2 1016.9 0.0
23/08:00am 20.7 22.3 15.0 70 3.4 CALM 0 9 0 5 1018.2 1016.9 0.0
23/07:30am 19.6 21.0 14.4 72 3.1 CALM 0 0 0 0 1018.1 1016.8 0.0
23/07:00am 19.1 20.4 14.1 73 2.9 CALM 0 0 0 0 1017.6 1016.3 0.0
23/06:30am 18.3 18.1 14.8 80 2.1 E 9 11 5 6 1017.2 1015.9 0.0
23/06:00am 17.5 17.3 14.6 83 1.7 SE 9 11 5 6 1016.9 1015.6 0.0
23/05:30am 16.6 15.5 14.2 86 1.4 ESE 13 15 7 8 1016.3 1015.0 0.0
23/05:00am 16.6 15.8 14.1 85 1.4 ESE 11 13 6 7 1016.0 1014.7 0.0
23/04:30am 16.7 15.6 14.2 85 1.4 ESE 13 15 7 8 1015.8 1014.5 0.0
23/04:00am 16.9 15.9 14.5 86 1.4 ESE 13 15 7 8 1015.6 1014.3 0.0
23/03:30am 16.9 16.6 14.5 86 1.4 SE 9 11 5 6 1015.7 1014.4 0.0
23/03:00am 17.1 16.1 14.6 85 1.5 E 13 15 7 8 1015.5 1014.2 0.0
23/02:30am 17.0 16.0 14.5 85 1.5 ESE 13 15 7 8 1015.6 1014.3 0.0
23/02:00am 17.4 16.1 14.7 84 1.6 E 15 17 8 9 1015.8 1014.5 0.0
23/01:30am 17.6 15.9 14.7 83 1.7 E 17 20 9 11 1016.0 1014.7 0.0
23/01:00am 17.9 17.1 15.0 83 1.7 ENE 13 20 7 11 1016.2 1014.9 0.0
23/12:30am 17.9 17.5 15.2 84 1.6 E 11 19 6 10 1016.5 1015.2 0.0
23/12:00am 18.1 17.3 15.2 83 1.7 E 13 15 7 8 1016.5 1015.2 0.0
 
Date/Time
EST
Temp
°C
App
Temp
°C
Dew
Point
°C
Rel
Hum
%
Delta-T
°C
Wind Press
QNH
hPa
Press
MSL
hPa
Rain since
9am
mm
Dir  Spd
km/h
Gust
km/h
Spd
kts
Gust
kts
22/11:30pm 18.5 17.8 15.4 82 1.8 E 13 17 7 9 1016.5 1015.2 0.0
22/11:00pm 18.9 17.9 15.6 81 2.0 ENE 15 19 8 10 1016.2 1014.9 0.0
22/10:30pm 19.4 16.7 15.5 78 2.3 ENE 24 30 13 16 1016.1 1014.8 0.0
22/10:00pm 19.9 16.4 15.5 76 2.6 ENE 28 33 15 18 1016.0 1014.7 0.0
22/09:30pm 19.9 18.2 14.7 72 3.1 ENE 17 20 9 11 1015.9 1014.6 0.0
22/09:00pm 20.9 18.8 14.8 68 3.6 E 19 24 10 13 1015.6 1014.3 0.0
22/08:30pm 21.5 19.6 15.3 68 3.7 ENE 19 22 10 12 1015.4 1014.0 0.0
22/08:00pm 22.1 20.4 15.7 67 3.9 ENE 19 24 10 13 1015.1 1013.7 0.0
22/07:30pm 22.5 22.8 14.9 62 4.6 ESE 7 9 4 5 1014.7 1013.4 0.0
22/07:00pm 23.7 23.9 14.7 57 5.4 SE 7 9 4 5 1014.5 1013.2 0.0
22/06:30pm 24.0 24.4 15.2 58 5.4 SE 7 9 4 5 1014.3 1013.0 0.0
22/06:00pm 25.0 24.8 14.8 53 6.2 SE 9 11 5 6 1014.1 1012.8 0.0
22/05:30pm 25.8 25.0 14.0 48 7.1 SE 11 15 6 8 1013.9 1012.6 0.0
22/05:00pm 26.4 26.6 14.2 47 7.4 ESE 6 11 3 6 1013.8 1012.5 0.0
22/04:30pm 26.5 25.7 11.8 40 8.5 SE 7 13 4 7 1013.6 1012.3 0.0
22/04:00pm 26.5 25.6 10.6 37 9.1 SSE 6 11 3 6 1013.5 1012.2 0.0
22/03:30pm 26.4 24.8 11.7 40 8.5 SSE 11 17 6 9 1013.6 1012.3 0.0
22/03:00pm 26.2 25.1 11.9 41 8.3 SE 9 15 5 8 1013.7 1012.4 0.0
22/02:30pm 26.4 25.8 13.5 45 7.7 SE 9 13 5 7 1013.9 1012.6 0.0
22/02:00pm 25.7 24.5 12.9 45 7.6 SE 11 19 6 10 1014.1 1012.8 0.0
22/01:30pm 25.6 25.0 13.5 47 7.2 E 9 17 5 9 1014.3 1013.0 0.0
22/01:00pm 25.5 25.8 14.9 52 6.5 ESE 7 17 4 9 1014.7 1013.4 0.0
22/12:30pm 25.0 25.0 13.5 48 6.8 N 6 11 3 6 1015.2 1013.8 0.0
22/12:00pm 24.4 24.8 15.3 57 5.5 SE 7 13 4 7 1015.5 1014.2 0.0
22/11:30am 24.3 24.4 14.4 54 6.0 NW 7 13 4 7 1015.8 1014.5 0.0
22/11:00am 23.7 24.9 16.0 62 4.7 SSW 4 13 2 7 1016.2 1014.9 0.0
22/10:30am 22.6 22.8 14.2 59 5.0 WSW 6 11 3 6 1016.7 1015.4 0.0
22/10:00am 22.0 22.6 15.4 66 4.0 W 6 13 3 7 1016.9 1015.6 0.0
22/09:30am 21.3 21.3 14.2 64 4.2 NW 7 11 4 6 1017.1 1015.8 0.0
22/09:00am 20.5 20.8 15.1 71 3.2 SW 7 11 4 6 1017.2 1015.9 18.2
22/08:30am 19.4 20.4 14.4 73 2.9 WNW 2 6 1 3 1017.4 1016.1 18.2
22/08:00am 18.9 18.7 13.7 72 3.0 E 7 13 4 7 1017.0 1015.7 18.2
22/07:30am 18.3 17.7 14.6 79 2.2 ESE 11 13 6 7 1016.7 1015.4 18.2
22/07:00am 17.0 16.2 13.9 82 1.8 ESE 11 13 6 7 1016.5 1015.2 18.2
22/06:30am 16.1 15.6 13.8 86 1.3 ESE 9 11 5 6 1016.4 1015.1 18.2
22/06:00am 14.8 14.7 13.3 91 0.8 ESE 6 9 3 5 1016.0 1014.7 18.2
22/05:30am 13.6 14.3 12.2 91 0.8 CALM 0 0 0 0 1015.6 1014.3 18.0
22/05:00am 13.6 14.3 12.2 91 0.8 CALM 0 0 0 0 1015.3 1013.9 18.0
22/04:30am 13.6 14.3 12.2 91 0.8 CALM 0 4 0 2 1015.1 1013.7 18.0
22/04:00am 13.8 13.4 12.4 91 0.8 NNE 6 9 3 5 1015.0 1013.6 18.0
22/03:30am 14.2 13.9 12.8 91 0.8 SE 6 7 3 4 1014.7 1013.4 18.0
22/03:00am 14.0 13.1 12.6 91 0.8 E 9 11 5 6 1014.4 1013.1 18.0
22/02:30am 14.3 13.8 12.7 90 0.9 ENE 7 9 4 5 1014.5 1013.2 18.0
22/02:00am 14.9 14.5 13.1 89 1.0 ESE 7 9 4 5 1014.5 1013.2 18.0
22/01:30am 15.3 14.3 13.5 89 1.0 SE 11 15 6 8 1014.9 1013.5 18.0
22/01:00am 14.8 15.7 13.0 89 1.0 CALM 0 6 0 3 1014.9 1013.5 18.0
22/12:30am 15.0 15.9 13.0 88 1.1 CALM 0 6 0 3 1015.1 1013.7 18.0
22/12:00am 15.3 14.3 13.5 89 1.0 ESE 11 11 6 6 1015.3 1013.9 18.0
 
Date/Time
EST
Temp
°C
App
Temp
°C
Dew
Point
°C
Rel
Hum
%
Delta-T
°C
Wind Press
QNH
hPa
Press
MSL
hPa
Rain since
9am
mm
Dir  Spd
km/h
Gust
km/h
Spd
kts
Gust
kts
21/11:30pm 15.3 15.1 13.5 89 1.0 E 7 9 4 5 1015.6 1014.3 18.0
21/11:00pm 15.5 15.3 13.7 89 1.0 E 7 9 4 5 1015.9 1014.6 18.0
21/10:30pm 16.1 17.4 14.1 88 1.2 CALM 0 0 0 0 1016.0 1014.7 18.0
21/10:00pm 16.3 16.5 14.3 88 1.2 WNW 6 9 3 5 1016.1 1014.8 18.0
21/09:30pm 16.5 17.0 14.0 85 1.4 N 4 9 2 5 1016.3 1015.0 18.0
21/09:00pm 16.7 16.6 14.0 84 1.6 ENE 7 7 4 4 1016.0 1014.7 18.0
21/08:30pm 17.0 17.0 14.3 84 1.6 ENE 7 9 4 5 1015.8 1014.5 18.0
21/08:00pm 17.1 18.6 14.6 85 1.5 CALM 0 0 0 0 1015.4 1014.0 18.0
21/07:30pm 17.3 17.5 14.6 84 1.6 NE 7 9 4 5 1015.0 1013.6 18.0
21/07:00pm 17.7 17.0 14.2 80 2.0 NE 11 15 6 8 1014.6 1013.3 18.0
21/06:30pm 18.1 17.6 14.8 81 1.9 NE 11 13 6 7 1014.6 1013.3 18.0
21/06:00pm 18.6 17.9 14.3 76 2.5 NE 11 13 6 7 1014.3 1013.0 18.0
21/05:30pm 19.3 18.4 14.8 75 2.7 NE 13 15 7 8 1013.7 1012.4 18.0
21/05:00pm 19.1 17.7 14.6 75 2.7 NE 15 19 8 10 1013.2 1011.9 18.0
21/04:30pm 19.1 18.3 15.0 77 2.4 NE 13 17 7 9 1013.1 1011.8 18.0
21/04:00pm 18.5 17.8 15.4 82 1.8 ENE 13 17 7 9 1013.3 1012.0 18.0
21/03:30pm 17.9 17.4 15.0 83 1.7 ENE 11 13 6 7 1013.6 1012.3 18.0
21/03:00pm 16.7 15.6 14.2 85 1.4 NE 13 15 7 8 1014.1 1012.8 18.0
21/02:30pm 16.9 16.7 14.7 87 1.3 SE 9 13 5 7 1014.5 1013.2 16.0
21/02:00pm 16.0 13.6 13.7 86 1.3 S 19 32 10 17 1014.9 1013.5 15.0
21/01:35pm 16.2 12.4 14.6 90 0.9 SSW 28 46 15 25 1015.1 1013.7 11.0
21/01:30pm 16.2 11.3 14.4 89 1.0 SSW 33 46 18 25 1015.6 1014.3 8.6
21/01:14pm 16.9 11.7 14.5 86 1.4 WSW 35 50 19 27 1015.1 1013.7 3.0
21/01:09pm 18.7 15.6 14.6 77 2.4 WNW 24 50 13 27 1015.1 1013.7 2.0
21/01:00pm 20.1 19.0 17.3 84 1.7 NW 19 28 10 15 1014.5 1013.2 2.0
21/12:30pm 20.7 19.0 17.3 81 2.1 NW 22 32 12 17 1014.1 1012.8 0.2
21/12:00pm 21.5 20.0 16.7 74 3.0 NNW 20 24 11 13 1014.7 1013.4 0.0
21/11:30am 20.0 17.5 15.2 74 2.9 N 22 33 12 18 1015.9 1014.6 0.0
21/11:00am 21.5 21.6 16.5 73 3.1 W 11 15 6 8 1016.3 1015.0 0.0
21/10:30am 21.3 21.9 16.7 75 2.8 W 9 17 5 9 1016.8 1015.5 0.0
21/10:00am 20.8 20.4 17.2 80 2.2 NW 15 20 8 11 1016.9 1015.6 0.0
21/09:30am 20.8 20.2 16.6 77 2.6 WNW 15 24 8 13 1017.0 1015.7 0.0
21/09:00am 20.5 19.5 16.5 78 2.4 NW 17 22 9 12 1016.8 1015.5 25.8
21/08:30am 20.4 19.5 16.8 80 2.2 WNW 17 20 9 11 1016.7 1015.4 25.8
21/08:00am 19.8 19.3 16.8 83 1.8 WNW 15 20 8 11 1016.4 1015.1 25.8
21/07:30am 19.6 20.4 16.3 81 2.0 WSW 7 13 4 7 1015.6 1014.3 25.8
21/07:00am 19.0 19.9 16.0 83 1.8 SSW 6 7 3 4 1015.7 1014.4 25.8
21/06:30am 18.4 18.8 16.2 87 1.3 SSE 9 11 5 6 1015.3 1013.9 25.8
21/06:00am 18.2 18.6 16.2 88 1.2 S 9 11 5 6 1015.0 1013.6 25.8
21/05:30am 18.0 18.7 16.2 89 1.1 E 7 9 4 5 1014.2 1012.9 25.8
21/05:00am 17.9 18.7 15.9 88 1.2 E 6 9 3 5 1014.0 1012.7 25.8
21/04:30am 18.1 16.3 16.1 88 1.2 NW 20 28 11 15 1014.5 1013.2 25.4
21/04:00am 18.2 20.3 16.2 88 1.2 CALM 0 9 0 5 1014.2 1012.9 25.2
21/03:30am 17.9 18.6 16.1 89 1.1 E 7 11 4 6 1013.4 1012.1 25.2
21/03:00am 17.9 17.5 16.1 89 1.1 E 13 17 7 9 1013.2 1011.9 25.2
21/02:30am 17.9 17.1 16.1 89 1.1 E 15 20 8 11 1013.6 1012.3 25.2
21/02:09am 17.8 15.7 16.1 90 1.0 E 22 35 12 19 1012.8 1011.4 25.2
21/02:00am 17.9 16.7 16.1 89 1.1 E 17 26 9 14 1014.9 1013.5 25.2
21/01:30am 18.0 16.8 16.2 89 1.1 SE 17 24 9 13 1015.0 1013.6 25.2
21/01:00am 18.0 15.6 16.3 90 1.0 ESE 24 37 13 20 1014.9 1013.5 25.2
21/12:30am 18.1 17.5 16.6 91 0.9 SE 15 19 8 10 1016.8 1015.5 24.4
21/12:00am 18.1 14.6 16.6 91 0.9 SSW 30 39 16 21 1017.7 1016.4 21.8
 
Date/Time
EST
Temp
°C
App
Temp
°C
Dew
Point
°C
Rel
Hum
%
Delta-T
°C
Wind Press
QNH
hPa
Press
MSL
hPa
Rain since
9am
mm
Dir  Spd
km/h
Gust
km/h
Spd
kts
Gust
kts
20/11:30pm 18.3 16.0 16.6 90 1.0 SW 24 32 13 17 1018.2 1016.9 8.2
20/11:00pm 18.6 16.7 16.8 89 1.1 SSW 22 30 12 16 1018.1 1016.8 2.4
20/10:30pm 19.0 14.2 16.6 86 1.5 SSW 37 46 20 25 1017.4 1016.1 0.2
20/10:12pm 20.5 15.7 15.5 73 3.0 SSW 35 54 19 29 1016.7 1015.4 0.0
20/10:00pm 21.9 17.6 15.3 66 4.0 SW 32 41 17 22 1016.6 1015.3 0.0
20/09:30pm 23.6 21.7 14.3 56 5.6 NNW 17 28 9 15 1016.0 1014.7 0.0
20/09:00pm 23.8 20.6 14.2 55 5.7 NNE 24 32 13 17 1014.4 1013.1 0.0
20/08:30pm 23.9 21.6 14.0 54 5.9 NNE 19 24 10 13 1014.0 1012.7 0.0
20/08:00pm 24.1 22.0 13.6 52 6.2 NNE 17 22 9 12 1014.0 1012.7 0.0
20/07:30pm 24.4 22.6 13.3 50 6.6 NE 15 17 8 9 1013.9 1012.6 0.0
20/07:00pm 25.6 23.7 13.1 46 7.4 NNE 15 17 8 9 1013.8 1012.5 0.0
20/06:30pm 25.9 24.7 12.7 44 7.8 NNE 11 13 6 7 1013.3 1012.0 0.0
20/06:00pm 27.2 25.7 12.0 38 8.9 N 11 13 6 7 1013.0 1011.7 0.0
20/05:30pm 28.5 26.8 11.1 34 10.1 N 11 15 6 8 1012.5 1011.1 0.0
20/05:00pm 29.5 27.4 11.1 32 10.7 N 13 19 7 10 1012.3 1010.9 0.0
20/04:30pm 29.3 26.7 9.4 29 11.3 N 13 19 7 10 1012.2 1010.8 0.0

Other Formats:

Comma delimited format used in spreadsheet applications
http://www.bom.gov.au/fwo/IDQ60801/IDQ60801.94542.axf

JavaScript Object Notation format (JSON) in row-major order
http://www.bom.gov.au/fwo/IDQ60801/IDQ60801.94542.json